Time;durP1;ratioP1;P1;durP2;ratioP2;P2;SDS_P1;SDS_P2;PMS_P1;PMS_P2;Temp;Humidity;BMP_temperature;BMP_pressure;BME280_temperature;BME280_humidity;BME280_pressure;Samples;Min_cycle;Max_cycle;Signal;HPM_P1;HPM_P2
2023/02/09 00:01:01;;;;;;;;;;;-1.60;99.90;;;;;;5056089;28;20291;-52
2023/02/09 00:03:28;;;;;;;;;;;-1.60;99.90;;;;;;5055403;28;19982;-52
2023/02/09 00:05:55;;;;;;;;;;;-1.70;99.90;;;;;;5055194;28;20299;-53
2023/02/09 00:08:23;;;;;;;;;;;-1.70;99.90;;;;;;5054201;28;20314;-53
2023/02/09 00:10:50;;;;;;;;;;;-1.80;99.90;;;;;;5055115;28;20359;-48
2023/02/09 00:13:22;;;;;;;;;;;-1.80;99.90;;;;;;5052639;28;20317;-52
2023/02/09 00:15:49;;;;;;;;;;;-1.90;99.90;;;;;;5054960;28;19917;-50
2023/02/09 00:18:16;;;;;;;;;;;-1.90;99.90;;;;;;5055416;28;19920;-53
2023/02/09 00:20:43;;;;;;;;;;;-1.90;99.90;;;;;;5056482;28;19927;-60
2023/02/09 00:23:10;;;;;;;;;;;-1.90;99.90;;;;;;5056180;28;20354;-59
2023/02/09 00:25:39;;;;;;;;;;;-1.90;99.90;;;;;;5056802;28;19986;-60
2023/02/09 00:28:06;;;;;;;;;;;-1.80;99.90;;;;;;5057113;28;19921;-59
2023/02/09 00:30:33;;;;;;;;;;;-1.80;99.90;;;;;;5056884;28;20316;-59
2023/02/09 00:32:59;;;;;;;;;;;-1.80;99.90;;;;;;5056689;28;19920;-61
2023/02/09 00:35:26;;;;;;;;;;;-1.80;99.90;;;;;;5057023;28;19921;-60
2023/02/09 00:37:53;;;;;;;;;;;-1.80;99.90;;;;;;5056876;28;19928;-59
2023/02/09 00:40:20;;;;;;;;;;;-1.90;99.90;;;;;;5060023;28;19947;-59
2023/02/09 00:42:48;;;;;;;;;;;-1.90;99.90;;;;;;5076928;28;19927;-59
2023/02/09 00:45:15;;;;;;;;;;;-1.90;99.90;;;;;;5077330;28;20204;-59
2023/02/09 00:47:42;;;;;;;;;;;-1.80;99.90;;;;;;5077125;28;19928;-59
2023/02/09 00:50:09;;;;;;;;;;;-1.80;99.90;;;;;;5076637;28;19920;-59
2023/02/09 00:52:36;;;;;;;;;;;-1.70;99.90;;;;;;5076568;28;19920;-59
2023/02/09 00:55:02;;;;;;;;;;;-1.70;99.90;;;;;;5076792;28;19920;-59
2023/02/09 00:57:29;;;;;;;;;;;-1.70;99.90;;;;;;5076394;28;19928;-59
2023/02/09 00:59:57;;;;;;;;;;;-1.80;99.90;;;;;;5076440;28;20332;-60
2023/02/09 01:02:24;;;;;;;;;;;-1.90;99.90;;;;;;5076510;28;19920;-60
2023/02/09 01:04:51;;;;;;;;;;;-1.90;99.90;;;;;;5076742;28;19924;-59
2023/02/09 01:07:18;;;;;;;;;;;-1.70;99.90;;;;;;5076420;28;19920;-60
2023/02/09 01:09:45;;;;;;;;;;;-1.80;99.90;;;;;;5076954;28;20330;-59
2023/02/09 01:12:12;;;;;;;;;;;-1.80;99.90;;;;;;5076709;28;19924;-59
2023/02/09 01:14:39;;;;;;;;;;;-1.90;99.90;;;;;;5076873;28;20224;-59
2023/02/09 01:17:07;;;;;;;;;;;-2.00;99.90;;;;;;5076519;28;19920;-59
2023/02/09 01:19:34;;;;;;;;;;;-2.10;99.90;;;;;;5079097;28;20211;-60
2023/02/09 01:22:01;;;;;;;;;;;-2.20;99.90;;;;;;5080037;28;20323;-60
2023/02/09 01:24:28;;;;;;;;;;;-2.20;99.90;;;;;;5079281;28;19943;-59
2023/02/09 01:26:55;;;;;;;;;;;-2.30;99.90;;;;;;5079709;28;19920;-59
2023/02/09 01:29:22;;;;;;;;;;;-2.20;99.90;;;;;;5079593;28;19931;-59
2023/02/09 01:31:49;;;;;;;;;;;-2.30;99.90;;;;;;5080010;28;19920;-58
2023/02/09 01:34:17;;;;;;;;;;;-2.20;99.90;;;;;;5079134;28;19920;-58
2023/02/09 01:36:45;;;;;;;;;;;-2.20;99.90;;;;;;5079011;28;19920;-59
2023/02/09 01:39:12;;;;;;;;;;;-2.10;99.90;;;;;;5079540;28;19932;-60
2023/02/09 01:41:39;;;;;;;;;;;-2.00;99.90;;;;;;5079943;28;19927;-59
2023/02/09 01:44:07;;;;;;;;;;;-2.00;99.90;;;;;;5079763;28;19920;-58
2023/02/09 01:46:35;;;;;;;;;;;-1.90;99.90;;;;;;5079480;28;20209;-59
2023/02/09 01:49:05;;;;;;;;;;;-1.90;99.90;;;;;;5079372;28;19928;-59
2023/02/09 01:51:35;;;;;;;;;;;-1.90;99.90;;;;;;5079814;28;19925;-54
2023/02/09 01:54:05;;;;;;;;;;;-1.90;99.90;;;;;;5079321;28;20232;-59
2023/02/09 01:56:32;;;;;;;;;;;-1.90;99.90;;;;;;5079738;28;19924;-59
2023/02/09 01:58:59;;;;;;;;;;;-1.90;99.90;;;;;;5079672;28;19924;-59
2023/02/09 02:01:26;;;;;;;;;;;-1.80;99.90;;;;;;5079029;28;19920;-59
2023/02/09 02:03:54;;;;;;;;;;;-1.70;99.90;;;;;;5079324;28;19924;-59
2023/02/09 02:06:21;;;;;;;;;;;-1.60;99.90;;;;;;5079865;28;20283;-59
2023/02/09 02:08:52;;;;;;;;;;;-1.40;99.90;;;;;;5079377;28;20304;-59
2023/02/09 02:11:19;;;;;;;;;;;-1.40;99.90;;;;;;5079460;28;19981;-59
2023/02/09 02:13:46;;;;;;;;;;;-1.40;99.90;;;;;;5078692;28;19920;-59
2023/02/09 02:16:20;;;;;;;;;;;-1.50;99.90;;;;;;5079684;28;19920;-59
2023/02/09 02:19:13;;;;;;;;;;;-1.70;99.90;;;;;;5078898;28;19921;-59
2023/02/09 02:21:54;;;;;;;;;;;-1.80;99.90;;;;;;5079441;28;20197;-59
2023/02/09 02:24:36;;;;;;;;;;;-1.90;99.90;;;;;;5024474;28;19928;-59
2023/02/09 02:27:06;;;;;;;;;;;-2.00;99.90;;;;;;5079261;28;20235;-59
2023/02/09 02:29:52;;;;;;;;;;;-2.00;99.90;;;;;;5078604;28;19928;-59
2023/02/09 02:32:34;;;;;;;;;;;-2.10;99.90;;;;;;5077160;28;20297;-53
2023/02/09 02:35:05;;;;;;;;;;;-2.10;99.90;;;;;;5060010;28;20308;-57
2023/02/09 02:37:37;;;;;;;;;;;-2.10;99.90;;;;;;5077833;28;20201;-54
2023/02/09 02:40:10;;;;;;;;;;;-2.20;99.90;;;;;;5076571;28;19930;-53
2023/02/09 02:42:49;;;;;;;;;;;-2.10;99.90;;;;;;5073870;28;20312;-54
2023/02/09 02:45:18;;;;;;;;;;;-2.20;99.90;;;;;;5077946;28;19920;-55
2023/02/09 02:47:48;;;;;;;;;;;-2.10;99.90;;;;;;5078088;28;20323;-54
2023/02/09 02:50:20;;;;;;;;;;;-2.20;99.90;;;;;;5059365;28;19920;-54
2023/02/09 02:52:48;;;;;;;;;;;-2.20;99.90;;;;;;5077782;28;19920;-51
2023/02/09 02:55:16;;;;;;;;;;;-2.20;99.90;;;;;;5077525;28;20208;-51
2023/02/09 02:57:45;;;;;;;;;;;-2.20;99.90;;;;;;5077411;28;20358;-55
2023/02/09 03:00:13;;;;;;;;;;;-2.20;99.90;;;;;;5076221;28;20324;-53
2023/02/09 03:02:42;;;;;;;;;;;-2.20;99.90;;;;;;5077641;28;19993;-55
2023/02/09 03:05:09;;;;;;;;;;;-2.20;99.90;;;;;;5077345;28;19927;-51
2023/02/09 03:07:37;;;;;;;;;;;-2.20;99.90;;;;;;5076658;28;19920;-52
2023/02/09 03:10:19;;;;;;;;;;;-2.20;99.90;;;;;;5077458;28;19920;-54
2023/02/09 03:12:50;;;;;;;;;;;-2.30;99.90;;;;;;5076449;28;20334;-54
2023/02/09 03:15:19;;;;;;;;;;;-2.40;99.90;;;;;;5077378;28;20335;-53
2023/02/09 03:17:48;;;;;;;;;;;-2.40;99.90;;;;;;5077219;28;20381;-52
2023/02/09 03:20:20;;;;;;;;;;;-2.40;99.90;;;;;;5076275;28;19928;-54
2023/02/09 03:22:55;;;;;;;;;;;-2.40;99.90;;;;;;5076521;28;19924;-54
2023/02/09 03:25:23;;;;;;;;;;;-2.40;99.90;;;;;;5076116;28;19921;-54
2023/02/09 03:27:53;;;;;;;;;;;-2.40;99.90;;;;;;5076932;28;19921;-55
2023/02/09 03:30:21;;;;;;;;;;;-2.30;99.90;;;;;;5077256;28;20178;-53
2023/02/09 03:32:48;;;;;;;;;;;-2.30;99.90;;;;;;5077519;28;19920;-53
2023/02/09 03:35:17;;;;;;;;;;;-2.30;99.90;;;;;;5077046;28;19920;-52
2023/02/09 03:37:44;;;;;;;;;;;-2.40;99.90;;;;;;5077129;28;19935;-51
2023/02/09 03:40:12;;;;;;;;;;;-2.40;99.90;;;;;;5076899;28;19928;-53
2023/02/09 03:42:39;;;;;;;;;;;-2.50;99.90;;;;;;5076552;28;20230;-51
2023/02/09 03:45:06;;;;;;;;;;;-2.60;99.90;;;;;;5075433;28;19920;-52
2023/02/09 03:47:33;;;;;;;;;;;-2.70;99.90;;;;;;5077152;28;19970;-52
2023/02/09 03:50:00;;;;;;;;;;;-2.80;99.90;;;;;;5076663;28;19927;-53
2023/02/09 03:52:29;;;;;;;;;;;-2.90;99.90;;;;;;5076264;28;19935;-52
2023/02/09 03:54:56;;;;;;;;;;;-2.90;99.90;;;;;;5074551;28;20224;-49
2023/02/09 03:57:24;;;;;;;;;;;-3.00;99.90;;;;;;5076504;28;19921;-50
2023/02/09 03:59:51;;;;;;;;;;;-2.90;99.90;;;;;;5076697;28;19920;-53
2023/02/09 04:02:18;;;;;;;;;;;-2.80;99.90;;;;;;5076684;28;20268;-54
2023/02/09 04:04:45;;;;;;;;;;;-2.70;99.90;;;;;;5076464;28;19927;-53
2023/02/09 04:07:12;;;;;;;;;;;-2.80;99.90;;;;;;5076982;28;19928;-54
2023/02/09 04:09:39;;;;;;;;;;;-2.90;99.90;;;;;;5076567;28;19943;-48
2023/02/09 04:12:06;;;;;;;;;;;-2.90;99.90;;;;;;5076182;28;19924;-49
2023/02/09 04:14:35;;;;;;;;;;;-2.90;99.90;;;;;;5075745;28;20247;-51
2023/02/09 04:17:01;;;;;;;;;;;-3.00;99.90;;;;;;5075459;28;20316;-54
2023/02/09 04:19:28;;;;;;;;;;;-3.00;99.90;;;;;;5076480;28;19927;-53
2023/02/09 04:21:55;;;;;;;;;;;-2.90;99.90;;;;;;5076482;28;19927;-53
2023/02/09 04:24:22;;;;;;;;;;;-2.90;99.90;;;;;;5076248;28;19920;-52
2023/02/09 04:26:49;;;;;;;;;;;-3.00;99.90;;;;;;5076915;28;20308;-52
2023/02/09 04:29:15;;;;;;;;;;;-3.00;99.90;;;;;;5076381;28;19927;-54
2023/02/09 04:31:44;;;;;;;;;;;-3.10;99.90;;;;;;5075434;28;19921;-53
2023/02/09 04:34:10;;;;;;;;;;;-3.10;99.90;;;;;;5075432;28;19920;-54
2023/02/09 04:36:37;;;;;;;;;;;-3.00;99.90;;;;;;5076675;28;20308;-54
2023/02/09 04:39:04;;;;;;;;;;;-2.90;99.90;;;;;;5074687;28;19959;-50
2023/02/09 04:41:31;;;;;;;;;;;-2.80;99.90;;;;;;5075828;28;20236;-53
2023/02/09 04:43:58;;;;;;;;;;;-2.70;99.90;;;;;;5076285;28;19925;-50
2023/02/09 04:46:25;;;;;;;;;;;-2.70;99.90;;;;;;5076605;28;19974;-51
2023/02/09 04:48:53;;;;;;;;;;;-2.70;99.90;;;;;;5076416;28;19931;-48
2023/02/09 04:51:20;;;;;;;;;;;-2.60;99.90;;;;;;5075709;28;19924;-53
2023/02/09 04:53:46;;;;;;;;;;;-2.60;99.90;;;;;;5077019;28;19920;-53
2023/02/09 04:56:14;;;;;;;;;;;-2.50;99.90;;;;;;5080224;28;19924;-51
2023/02/09 05:01:25;;;;;;;;;;;-2.40;99.90;;;;;;5078876;28;20005;-53
2023/02/09 05:03:53;;;;;;;;;;;-2.30;99.90;;;;;;5078648;28;19927;-51
2023/02/09 05:06:20;;;;;;;;;;;-2.40;99.90;;;;;;5078879;28;20308;-49
2023/02/09 05:08:47;;;;;;;;;;;-2.50;99.90;;;;;;5078618;28;20327;-52
2023/02/09 05:11:14;;;;;;;;;;;-2.80;99.90;;;;;;5078987;28;19924;-53
2023/02/09 05:13:41;;;;;;;;;;;-3.10;99.90;;;;;;5078784;28;20496;-52
2023/02/09 05:16:09;;;;;;;;;;;-3.20;99.90;;;;;;5078683;28;19920;-51
2023/02/09 05:18:36;;;;;;;;;;;-3.20;99.90;;;;;;5079594;28;19921;-52
2023/02/09 05:21:04;;;;;;;;;;;-3.30;99.90;;;;;;5079602;28;19927;-54
2023/02/09 05:23:31;;;;;;;;;;;-3.30;99.90;;;;;;5079392;28;19954;-54
2023/02/09 05:25:58;;;;;;;;;;;-3.30;99.90;;;;;;5079668;28;19920;-51
2023/02/09 05:28:25;;;;;;;;;;;-3.40;99.90;;;;;;5079526;28;19920;-50
2023/02/09 05:30:52;;;;;;;;;;;-3.40;99.90;;;;;;5079843;28;20311;-53
2023/02/09 05:33:19;;;;;;;;;;;-3.30;99.90;;;;;;5079133;28;19927;-50
2023/02/09 05:35:46;;;;;;;;;;;-3.30;99.90;;;;;;5079387;28;19924;-51
2023/02/09 05:38:14;;;;;;;;;;;-3.30;99.90;;;;;;5079096;28;20324;-55
2023/02/09 05:40:41;;;;;;;;;;;-3.10;99.90;;;;;;5079232;28;19921;-51
2023/02/09 05:43:08;;;;;;;;;;;-3.00;99.90;;;;;;5078397;28;19920;-49
2023/02/09 05:45:35;;;;;;;;;;;-3.00;99.90;;;;;;5078909;28;19924;-50
2023/02/09 05:48:02;;;;;;;;;;;-2.90;99.90;;;;;;5077829;28;19945;-53
2023/02/09 05:50:28;;;;;;;;;;;-2.90;99.90;;;;;;5078204;28;20301;-51
2023/02/09 05:52:55;;;;;;;;;;;-2.90;99.90;;;;;;5078362;28;19921;-54
2023/02/09 05:55:23;;;;;;;;;;;-3.00;99.90;;;;;;5078499;28;19924;-55
2023/02/09 05:57:50;;;;;;;;;;;-3.00;99.90;;;;;;5078049;28;19928;-52
2023/02/09 06:00:17;;;;;;;;;;;-3.10;99.90;;;;;;5078100;28;19928;-53
2023/02/09 06:02:44;;;;;;;;;;;-3.20;99.90;;;;;;5078145;28;20216;-55
2023/02/09 06:05:11;;;;;;;;;;;-3.30;99.90;;;;;;5077288;28;19928;-54
2023/02/09 06:07:38;;;;;;;;;;;-3.30;99.90;;;;;;5076601;28;19924;-52
2023/02/09 06:10:04;;;;;;;;;;;-3.40;99.90;;;;;;5075747;28;20284;-52
2023/02/09 06:12:33;;;;;;;;;;;-3.40;99.90;;;;;;5076356;28;19921;-53
2023/02/09 06:14:59;;;;;;;;;;;-3.40;99.90;;;;;;5076992;28;19920;-52
2023/02/09 06:17:26;;;;;;;;;;;-3.40;99.90;;;;;;5076941;28;19926;-52
2023/02/09 06:19:53;;;;;;;;;;;-3.50;99.90;;;;;;5070019;28;19925;-52
2023/02/09 06:22:20;;;;;;;;;;;-3.50;99.90;;;;;;5056705;28;19921;-53
2023/02/09 06:24:47;;;;;;;;;;;-3.50;99.90;;;;;;5053860;28;19924;-52
2023/02/09 06:27:13;;;;;;;;;;;-3.50;99.90;;;;;;5054370;28;20027;-54
2023/02/09 06:29:42;;;;;;;;;;;-3.40;99.90;;;;;;5056449;28;20385;-54
2023/02/09 06:32:08;;;;;;;;;;;-3.40;99.90;;;;;;5056532;28;19921;-52
2023/02/09 06:34:35;;;;;;;;;;;-3.30;99.90;;;;;;5056688;28;20351;-53
2023/02/09 06:37:02;;;;;;;;;;;-3.40;99.90;;;;;;5056153;28;19928;-55
2023/02/09 06:39:29;;;;;;;;;;;-3.30;99.90;;;;;;5055669;28;19986;-53
2023/02/09 06:41:56;;;;;;;;;;;-3.30;99.90;;;;;;5055158;28;20466;-53
2023/02/09 06:44:23;;;;;;;;;;;-3.10;99.90;;;;;;5054797;28;19927;-51
2023/02/09 06:46:51;;;;;;;;;;;-3.20;99.90;;;;;;5056269;28;19943;-51
2023/02/09 06:49:21;;;;;;;;;;;-3.20;99.90;;;;;;5056139;28;19944;-48
2023/02/09 06:51:47;;;;;;;;;;;-3.30;99.90;;;;;;5056026;28;20337;-52
2023/02/09 06:54:14;;;;;;;;;;;-3.40;99.90;;;;;;5055703;28;19920;-51
2023/02/09 06:56:41;;;;;;;;;;;-3.40;99.90;;;;;;5074638;28;19927;-54
2023/02/09 06:59:08;;;;;;;;;;;-3.50;99.90;;;;;;5076098;28;20321;-54
2023/02/09 07:01:36;;;;;;;;;;;-3.70;99.90;;;;;;5073788;28;19928;-54
2023/02/09 07:04:04;;;;;;;;;;;-3.70;99.90;;;;;;5072909;28;19978;-53
2023/02/09 07:06:31;;;;;;;;;;;-3.80;99.90;;;;;;5073673;28;19943;-54
2023/02/09 07:08:57;;;;;;;;;;;-3.80;99.90;;;;;;5073297;28;19920;-53
2023/02/09 07:11:24;;;;;;;;;;;-3.80;99.90;;;;;;5074113;28;19943;-53
2023/02/09 07:13:51;;;;;;;;;;;-3.80;99.90;;;;;;5073975;28;19920;-55
2023/02/09 07:16:18;;;;;;;;;;;-3.70;99.90;;;;;;5075387;28;19927;-50
2023/02/09 07:18:45;;;;;;;;;;;-3.60;99.90;;;;;;5074304;28;19920;-55
2023/02/09 07:21:17;;;;;;;;;;;-3.40;99.90;;;;;;5073894;28;19920;-52
2023/02/09 07:23:44;;;;;;;;;;;-3.30;99.90;;;;;;5074966;28;20514;-50
2023/02/09 07:26:14;;;;;;;;;;;-3.20;99.90;;;;;;5075484;28;19928;-52
2023/02/09 07:28:41;;;;;;;;;;;-3.20;99.90;;;;;;5075900;28;19952;-47
2023/02/09 07:31:08;;;;;;;;;;;-3.20;99.90;;;;;;5075057;28;19928;-51
2023/02/09 07:33:36;;;;;;;;;;;-3.10;99.90;;;;;;5074994;28;19924;-52
2023/02/09 07:36:03;;;;;;;;;;;-3.10;99.90;;;;;;5075432;28;19939;-54
2023/02/09 07:38:31;;;;;;;;;;;-3.10;99.90;;;;;;5073928;28;19921;-50
2023/02/09 07:40:58;;;;;;;;;;;-3.10;99.90;;;;;;5073528;28;19920;-49
2023/02/09 07:43:25;;;;;;;;;;;-2.90;99.90;;;;;;5070852;28;19967;-51
2023/02/09 07:45:52;;;;;;;;;;;-2.80;99.90;;;;;;5074035;28;20243;-48
2023/02/09 07:48:19;;;;;;;;;;;-2.70;99.90;;;;;;5073024;28;19927;-50
2023/02/09 07:50:48;;;;;;;;;;;-2.70;99.90;;;;;;5073990;28;19920;-53
2023/02/09 07:53:15;;;;;;;;;;;-2.70;99.90;;;;;;5074637;28;19920;-50
2023/02/09 07:55:43;;;;;;;;;;;-2.70;99.90;;;;;;5073092;28;19920;-53
2023/02/09 07:58:10;;;;;;;;;;;-2.70;99.90;;;;;;5073754;28;19920;-50
2023/02/09 08:00:37;;;;;;;;;;;-2.60;99.90;;;;;;5075729;28;19928;-51
2023/02/09 08:03:04;;;;;;;;;;;-2.60;99.90;;;;;;5073766;28;19920;-50
2023/02/09 08:05:33;;;;;;;;;;;-2.60;99.90;;;;;;5075053;28;19924;-51
2023/02/09 08:08:00;;;;;;;;;;;-2.60;99.90;;;;;;5073043;28;21320;-50
2023/02/09 08:10:27;;;;;;;;;;;-2.60;99.90;;;;;;5073745;28;20227;-50
2023/02/09 08:13:02;;;;;;;;;;;-2.50;99.90;;;;;;5072340;28;19978;-52
2023/02/09 08:15:31;;;;;;;;;;;-2.40;99.90;;;;;;5070486;28;20392;-49
2023/02/09 08:17:59;;;;;;;;;;;-2.40;99.90;;;;;;5073536;28;19943;-49
2023/02/09 08:20:27;;;;;;;;;;;-2.30;99.90;;;;;;5073220;28;19924;-53
2023/02/09 08:22:55;;;;;;;;;;;-2.30;99.90;;;;;;5074755;28;19928;-52
2023/02/09 08:25:23;;;;;;;;;;;-2.20;99.90;;;;;;5074744;28;19930;-49
2023/02/09 08:27:51;;;;;;;;;;;-2.10;99.90;;;;;;5071309;28;20267;-51
2023/02/09 08:30:19;;;;;;;;;;;-1.90;99.90;;;;;;5076043;28;20320;-47
2023/02/09 08:32:46;;;;;;;;;;;-1.90;99.90;;;;;;5077383;28;20236;-49
2023/02/09 08:35:13;;;;;;;;;;;-2.00;99.90;;;;;;5075381;28;19927;-47
2023/02/09 08:37:40;;;;;;;;;;;-1.90;99.90;;;;;;5076011;28;19927;-47
2023/02/09 08:40:07;;;;;;;;;;;-1.90;99.90;;;;;;5074517;28;19920;-50
2023/02/09 08:42:34;;;;;;;;;;;-1.80;99.90;;;;;;5074055;28;20228;-49
2023/02/09 08:45:01;;;;;;;;;;;-1.80;99.90;;;;;;5075340;28;19920;-46
2023/02/09 08:47:29;;;;;;;;;;;-1.80;99.90;;;;;;5076913;28;20327;-52
2023/02/09 08:49:57;;;;;;;;;;;-1.70;99.90;;;;;;5076434;28;20323;-51
2023/02/09 08:52:24;;;;;;;;;;;-1.60;99.90;;;;;;5074719;28;19960;-54
2023/02/09 08:54:51;;;;;;;;;;;-1.60;99.90;;;;;;5075523;28;20495;-52
2023/02/09 08:57:18;;;;;;;;;;;-1.50;99.90;;;;;;5076200;28;19920;-47
2023/02/09 08:59:44;;;;;;;;;;;-1.40;99.90;;;;;;5077005;28;19920;-53
2023/02/09 09:02:11;;;;;;;;;;;-1.40;99.90;;;;;;5074080;28;19928;-50
2023/02/09 09:04:39;;;;;;;;;;;-1.50;99.90;;;;;;5075555;28;19920;-53
2023/02/09 09:07:06;;;;;;;;;;;-1.40;99.90;;;;;;5076815;28;19924;-49
2023/02/09 09:09:33;;;;;;;;;;;-1.40;99.90;;;;;;5076896;28;19929;-51
2023/02/09 09:12:00;;;;;;;;;;;-1.40;99.90;;;;;;5074947;28;20513;-49
2023/02/09 09:14:27;;;;;;;;;;;-1.30;99.90;;;;;;5077436;28;19920;-51
2023/02/09 09:16:56;;;;;;;;;;;-1.30;99.90;;;;;;5077245;28;20304;-51
2023/02/09 09:19:23;;;;;;;;;;;-1.30;99.90;;;;;;5074227;28;19928;-51
2023/02/09 09:21:51;;;;;;;;;;;-1.20;99.90;;;;;;5076946;28;19958;-51
2023/02/09 09:24:18;;;;;;;;;;;-1.10;99.90;;;;;;5070889;28;19927;-54
2023/02/09 09:26:45;;;;;;;;;;;-1.10;99.90;;;;;;5073747;28;19931;-52
2023/02/09 09:29:12;;;;;;;;;;;-1.00;99.90;;;;;;5072043;28;20007;-53
2023/02/09 09:31:39;;;;;;;;;;;-0.90;99.90;;;;;;5068752;28;20406;-47
2023/02/09 09:34:06;;;;;;;;;;;-0.80;99.90;;;;;;5072248;28;19956;-50
2023/02/09 09:36:35;;;;;;;;;;;-0.80;99.90;;;;;;5059605;28;19924;-50
2023/02/09 09:39:03;;;;;;;;;;;-0.70;99.90;;;;;;5074325;28;19955;-51
2023/02/09 09:41:32;;;;;;;;;;;-0.70;99.90;;;;;;5062566;28;19927;-52
2023/02/09 09:43:59;;;;;;;;;;;-0.60;99.90;;;;;;5071537;28;19920;-50
2023/02/09 09:46:32;;;;;;;;;;;-0.50;99.90;;;;;;5058350;28;19928;-52
2023/02/09 09:48:59;;;;;;;;;;;-0.40;99.90;;;;;;5061951;28;19921;-51
2023/02/09 09:51:36;;;;;;;;;;;-0.40;99.90;;;;;;5060563;28;19932;-49
2023/02/09 09:54:06;;;;;;;;;;;-0.30;99.90;;;;;;5057240;28;20220;-51
2023/02/09 09:56:33;;;;;;;;;;;-0.20;99.90;;;;;;5068506;28;19924;-51
2023/02/09 09:59:00;;;;;;;;;;;-0.10;99.90;;;;;;5063058;28;19963;-54
2023/02/09 10:01:28;;;;;;;;;;;-0.10;99.90;;;;;;5061819;28;20347;-53
2023/02/09 10:03:56;;;;;;;;;;;0.00;99.90;;;;;;5070947;28;19967;-49
2023/02/09 10:06:23;;;;;;;;;;;0.20;99.90;;;;;;5061045;28;19923;-51
2023/02/09 10:08:52;;;;;;;;;;;0.30;99.90;;;;;;5067460;28;19928;-49
2023/02/09 10:11:23;;;;;;;;;;;0.40;99.90;;;;;;5066906;28;19924;-51
2023/02/09 10:13:52;;;;;;;;;;;0.50;99.90;;;;;;5059237;28;19920;-48
2023/02/09 10:16:20;;;;;;;;;;;0.50;99.90;;;;;;5075973;28;19921;-54
2023/02/09 10:18:49;;;;;;;;;;;0.60;99.90;;;;;;5070308;28;20322;-52
2023/02/09 10:21:17;;;;;;;;;;;0.70;99.90;;;;;;5064153;28;20232;-53
2023/02/09 10:23:46;;;;;;;;;;;0.60;99.90;;;;;;5070806;28;19920;-51
2023/02/09 10:26:22;;;;;;;;;;;0.90;99.90;;;;;;5058498;28;19935;-51
2023/02/09 10:28:50;;;;;;;;;;;0.90;99.90;;;;;;5066999;28;19967;-49
2023/02/09 10:31:22;;;;;;;;;;;1.00;99.90;;;;;;5066892;28;20259;-51
2023/02/09 10:33:52;;;;;;;;;;;1.40;99.90;;;;;;5057880;28;20011;-50
2023/02/09 10:36:26;;;;;;;;;;;1.90;99.90;;;;;;5059346;28;19927;-48
2023/02/09 10:38:53;;;;;;;;;;;2.20;99.90;;;;;;5072778;28;19927;-51
2023/02/09 10:41:22;;;;;;;;;;;2.40;99.90;;;;;;5069763;28;19924;-52
2023/02/09 10:43:51;;;;;;;;;;;3.10;99.90;;;;;;5073994;28;20463;-51
2023/02/09 10:46:20;;;;;;;;;;;3.00;99.90;;;;;;5071584;28;19977;-50
2023/02/09 10:48:47;;;;;;;;;;;3.10;99.90;;;;;;5070247;28;19921;-49
2023/02/09 10:51:15;;;;;;;;;;;3.20;99.90;;;;;;5074319;28;20308;-47
2023/02/09 10:53:56;;;;;;;;;;;3.30;99.90;;;;;;5059456;28;20322;-48
2023/02/09 10:56:25;;;;;;;;;;;3.00;99.90;;;;;;5057209;28;19928;-45
2023/02/09 10:58:53;;;;;;;;;;;2.70;99.90;;;;;;5073535;28;19966;-49
2023/02/09 11:01:23;;;;;;;;;;;2.60;99.90;;;;;;5070253;28;19934;-49
2023/02/09 11:03:58;;;;;;;;;;;2.70;99.90;;;;;;5071503;28;20286;-49
2023/02/09 11:06:25;;;;;;;;;;;2.80;99.90;;;;;;5060070;28;19959;-51
2023/02/09 11:08:55;;;;;;;;;;;2.70;99.90;;;;;;5069201;28;19920;-46
2023/02/09 11:11:31;;;;;;;;;;;2.50;99.90;;;;;;5059297;28;19920;-48
2023/02/09 11:13:58;;;;;;;;;;;2.40;99.90;;;;;;5072054;28;19924;-50
2023/02/09 11:16:44;;;;;;;;;;;2.40;99.90;;;;;;5073335;28;19920;-53
2023/02/09 11:19:18;;;;;;;;;;;2.50;99.90;;;;;;5064430;28;19974;-50
2023/02/09 11:21:52;;;;;;;;;;;2.70;99.90;;;;;;5072344;28;20335;-53
2023/02/09 11:24:23;;;;;;;;;;;2.80;99.90;;;;;;5067278;28;19967;-52
2023/02/09 11:26:56;;;;;;;;;;;3.00;99.90;;;;;;5059923;28;19920;-49
2023/02/09 11:29:26;;;;;;;;;;;3.00;99.90;;;;;;5057811;28;19943;-51
2023/02/09 11:32:08;;;;;;;;;;;3.10;99.90;;;;;;5073229;28;19927;-52
2023/02/09 11:34:43;;;;;;;;;;;3.30;99.90;;;;;;5062783;28;19925;-50
2023/02/09 11:37:18;;;;;;;;;;;3.50;99.90;;;;;;5063733;28;19924;-50
2023/02/09 11:39:51;;;;;;;;;;;3.60;99.90;;;;;;5071861;28;19928;-48
2023/02/09 11:45:12;;;;;;;;;;;3.90;99.90;;;;;;5062159;28;19931;-48
2023/02/09 11:47:44;;;;;;;;;;;4.00;99.90;;;;;;5071799;28;19955;-48
2023/02/09 11:50:16;;;;;;;;;;;4.00;99.90;;;;;;5056035;28;19920;-48
2023/02/09 11:52:47;;;;;;;;;;;4.00;99.90;;;;;;5064392;28;20386;-54
2023/02/09 11:55:19;;;;;;;;;;;4.20;99.90;;;;;;5063757;28;19920;-49
2023/02/09 11:57:52;;;;;;;;;;;4.20;99.90;;;;;;5072483;28;19920;-49
2023/02/09 12:00:21;;;;;;;;;;;4.20;99.90;;;;;;5063168;28;19943;-50
2023/02/09 12:02:52;;;;;;;;;;;4.30;99.90;;;;;;5060579;28;19921;-50
2023/02/09 12:05:20;;;;;;;;;;;4.40;99.90;;;;;;5068088;28;19927;-51
2023/02/09 12:07:52;;;;;;;;;;;4.50;99.90;;;;;;5070023;28;19933;-52
2023/02/09 12:10:23;;;;;;;;;;;4.60;99.90;;;;;;5070482;28;19924;-55
2023/02/09 12:12:53;;;;;;;;;;;4.50;99.90;;;;;;5068302;28;19928;-53
2023/02/09 12:15:22;;;;;;;;;;;4.50;99.90;;;;;;5071335;28;20320;-52
2023/02/09 12:17:51;;;;;;;;;;;4.60;99.90;;;;;;5065252;28;19939;-51
2023/02/09 12:20:26;;;;;;;;;;;4.60;99.90;;;;;;5069365;28;19927;-50
2023/02/09 12:22:59;;;;;;;;;;;4.50;99.90;;;;;;5060799;28;20118;-51
2023/02/09 12:25:35;;;;;;;;;;;4.60;99.90;;;;;;5071638;28;20247;-50
2023/02/09 12:28:20;;;;;;;;;;;4.40;99.90;;;;;;5069668;28;20369;-53
2023/02/09 12:31:05;;;;;;;;;;;4.60;99.90;;;;;;5059583;28;20396;-50
2023/02/09 12:33:33;;;;;;;;;;;4.70;99.90;;;;;;5067833;28;20345;-53
2023/02/09 12:36:02;;;;;;;;;;;4.60;99.90;;;;;;5063155;28;19928;-49
2023/02/09 12:38:42;;;;;;;;;;;4.70;99.90;;;;;;5059528;28;19920;-54
2023/02/09 12:41:11;;;;;;;;;;;4.60;99.90;;;;;;5067729;28;19928;-53
2023/02/09 12:43:39;;;;;;;;;;;4.70;99.90;;;;;;5071087;28;20327;-49
2023/02/09 12:46:25;;;;;;;;;;;4.80;99.90;;;;;;5067267;28;19920;-52
2023/02/09 12:49:19;;;;;;;;;;;4.60;99.90;;;;;;5066377;28;20011;-50
2023/02/09 12:52:04;;;;;;;;;;;4.60;99.90;;;;;;5009858;28;20020;-47
2023/02/09 12:54:34;;;;;;;;;;;4.30;99.90;;;;;;5066360;28;19928;-49
2023/02/09 12:57:15;;;;;;;;;;;4.30;99.90;;;;;;5066733;28;20243;-52
2023/02/09 13:00:03;;;;;;;;;;;4.40;99.90;;;;;;5021263;28;19928;-50
2023/02/09 13:02:34;;;;;;;;;;;4.50;99.90;;;;;;5061203;28;19952;-49
2023/02/09 13:05:02;;;;;;;;;;;4.60;99.90;;;;;;5059975;28;20026;-53
2023/02/09 13:07:35;;;;;;;;;;;4.70;99.90;;;;;;5069036;28;19948;-51
2023/02/09 13:10:06;;;;;;;;;;;4.50;99.90;;;;;;5068102;28;19920;-50
2023/02/09 13:12:36;;;;;;;;;;;4.60;99.90;;;;;;5065800;28;19921;-51
2023/02/09 13:15:08;;;;;;;;;;;4.60;99.90;;;;;;5060187;28;19956;-52
2023/02/09 13:17:41;;;;;;;;;;;4.60;99.90;;;;;;5068667;28;20256;-49
2023/02/09 13:20:22;;;;;;;;;;;4.50;99.90;;;;;;5066093;28;19939;-51
2023/02/09 13:22:57;;;;;;;;;;;4.60;99.90;;;;;;5066290;28;19921;-53
2023/02/09 13:25:28;;;;;;;;;;;4.60;99.90;;;;;;5074287;28;19927;-51
2023/02/09 13:27:55;;;;;;;;;;;4.60;99.90;;;;;;5070972;28;19924;-50
2023/02/09 13:30:26;;;;;;;;;;;4.70;99.90;;;;;;5074845;28;19920;-51
2023/02/09 13:33:00;;;;;;;;;;;4.70;99.90;;;;;;5071121;28;19920;-49
2023/02/09 13:35:28;;;;;;;;;;;4.70;99.90;;;;;;5071050;28;19928;-52
2023/02/09 13:37:56;;;;;;;;;;;4.70;99.90;;;;;;5063478;28;19962;-50
2023/02/09 13:40:24;;;;;;;;;;;4.70;99.90;;;;;;5070809;28;19920;-51
2023/02/09 13:42:52;;;;;;;;;;;4.60;99.90;;;;;;5074800;28;19927;-51
2023/02/09 13:45:19;;;;;;;;;;;4.50;99.90;;;;;;5072878;28;19927;-49
2023/02/09 13:47:47;;;;;;;;;;;4.60;99.90;;;;;;5068782;28;19955;-53
2023/02/09 13:50:17;;;;;;;;;;;4.60;99.90;;;;;;5069859;28;19920;-51
2023/02/09 13:52:44;;;;;;;;;;;4.60;99.90;;;;;;5075979;28;19920;-50
2023/02/09 13:55:12;;;;;;;;;;;4.50;99.90;;;;;;5067875;28;19921;-51
2023/02/09 13:57:40;;;;;;;;;;;4.50;99.90;;;;;;5071490;28;19932;-51
2023/02/09 14:00:16;;;;;;;;;;;4.40;99.90;;;;;;5064512;28;19920;-51
2023/02/09 14:02:45;;;;;;;;;;;4.40;99.90;;;;;;5062598;28;20339;-51
2023/02/09 14:05:20;;;;;;;;;;;4.40;99.90;;;;;;5065137;28;19942;-53
2023/02/09 14:07:47;;;;;;;;;;;4.30;99.90;;;;;;5072340;28;20252;-54
2023/02/09 14:10:16;;;;;;;;;;;4.30;99.90;;;;;;5074358;28;19920;-52
2023/02/09 14:12:51;;;;;;;;;;;4.30;99.90;;;;;;5070303;28;20292;-53
2023/02/09 14:18:03;;;;;;;;;;;4.40;99.90;;;;;;5070100;28;20513;-54
2023/02/09 14:20:31;;;;;;;;;;;4.40;99.90;;;;;;5073585;28;20515;-51
2023/02/09 14:22:59;;;;;;;;;;;4.50;99.90;;;;;;5072208;28;19931;-53
2023/02/09 14:25:26;;;;;;;;;;;4.50;99.90;;;;;;5070651;28;19927;-53
2023/02/09 14:27:53;;;;;;;;;;;4.50;99.90;;;;;;5072033;28;19924;-54
2023/02/09 14:30:21;;;;;;;;;;;4.50;99.90;;;;;;5072293;28;19921;-50
2023/02/09 14:32:51;;;;;;;;;;;4.40;99.90;;;;;;5072077;28;19939;-53
2023/02/09 14:35:20;;;;;;;;;;;4.40;99.90;;;;;;5069738;28;19928;-51
2023/02/09 14:37:49;;;;;;;;;;;4.40;99.90;;;;;;5070676;28;20291;-53
2023/02/09 14:40:20;;;;;;;;;;;4.30;99.90;;;;;;5073889;28;19928;-53